KJOT/JOT METAR and TAF weather

Enter ICAO airport designator
Station Type Date Time Source
KJOT METAR 2022/12/10 01:35 UTC NOAA

KJOT 100135Z AUTO 06006KT 5SM BR OVC006 04/03 A3019 RMK AO2 T00360027


Station Type Date Time Source
KJOT Decoded METAR 2022/12/10 01:35 UTC NOAA

Joliet, Joliet Regional Airport, IL, United States (KJOT) 41-31-05N 088-10-31W
Dec 09, 2022 - 08:35 PM EST / 2022.12.10 0135 UTC
Wind: from the ENE (060 degrees) at 7 MPH (6 KT):0
Visibility: 5 mile(s):0
Sky conditions: overcast
Weather: mist
Temperature: 38.5 F (3.6 C)
Dew Point: 36.9 F (2.7 C)
Relative Humidity: 93%
Pressure (altimeter): 30.19 in. Hg (1022 hPa)
ob: KJOT 100135Z AUTO 06006KT 5SM BR OVC006 04/03 A3019 RMK AO2 T00360027
cycle: 1

Station Type Date Time Source
KJOT TAF UTC NOAA

Error!

Example: see airport list